createdAt,value
2018-07-09T00:01:08.435Z,1.90
2018-07-09T00:03:37.591Z,1.70
2018-07-09T00:06:06.853Z,1.93
2018-07-09T00:08:36.037Z,1.80
2018-07-09T00:11:07.336Z,1.80
2018-07-09T00:13:38.581Z,1.80
2018-07-09T00:16:07.765Z,2.00
2018-07-09T00:18:36.893Z,1.77
2018-07-09T00:21:06.145Z,2.17
2018-07-09T00:23:35.327Z,1.80
2018-07-09T00:26:04.532Z,1.80
2018-07-09T00:28:34.015Z,1.53
2018-07-09T00:31:03.264Z,1.60
2018-07-09T00:33:32.370Z,1.50
2018-07-09T00:36:01.538Z,1.47
2018-07-09T00:38:30.660Z,1.40
2018-07-09T00:40:59.912Z,1.70
2018-07-09T00:43:29.050Z,1.80
2018-07-09T00:45:58.269Z,1.70
2018-07-09T00:48:27.453Z,1.90
2018-07-09T00:50:56.392Z,1.97
2018-07-09T00:53:25.101Z,1.93
2018-07-09T00:55:54.146Z,1.57
2018-07-09T00:58:23.380Z,1.97
2018-07-09T01:00:53.236Z,1.77
2018-07-09T01:03:22.406Z,1.33
2018-07-09T01:05:51.733Z,1.73
2018-07-09T01:08:20.884Z,1.40
2018-07-09T01:11:01.543Z,1.40
2018-07-09T01:13:41.567Z,1.57
2018-07-09T01:16:11.557Z,1.60
2018-07-09T01:18:40.990Z,1.70
2018-07-09T01:21:13.034Z,1.60
2018-07-09T01:23:42.330Z,1.90
2018-07-09T01:26:11.512Z,1.50
2018-07-09T01:28:41.670Z,1.90
2018-07-09T01:31:10.857Z,1.80
2018-07-09T01:33:40.043Z,2.17
2018-07-09T01:36:08.896Z,2.00
2018-07-09T01:38:37.959Z,2.30
2018-07-09T01:41:07.132Z,2.43
2018-07-09T01:43:36.404Z,1.90
2018-07-09T01:46:05.578Z,2.63
2018-07-09T01:48:34.705Z,2.30
2018-07-09T01:51:03.915Z,2.47
2018-07-09T01:53:33.090Z,1.70
2018-07-09T01:56:02.286Z,1.80
2018-07-09T01:58:31.419Z,1.70
2018-07-09T02:01:00.623Z,1.50
2018-07-09T02:03:29.826Z,1.40
2018-07-09T02:05:59.007Z,1.63
2018-07-09T02:08:28.171Z,1.20
2018-07-09T02:10:57.364Z,1.53
2018-07-09T02:13:26.576Z,1.13
2018-07-09T02:15:55.784Z,1.30
2018-07-09T02:18:24.947Z,1.33
2018-07-09T02:20:54.159Z,1.30
2018-07-09T02:23:23.316Z,1.30
2018-07-09T02:25:52.483Z,1.30
2018-07-09T02:28:21.667Z,1.60
2018-07-09T02:30:50.846Z,1.40
2018-07-09T02:33:20.020Z,1.50
2018-07-09T02:35:49.177Z,1.53
2018-07-09T02:38:18.579Z,1.67
2018-07-09T02:40:47.715Z,1.60
2018-07-09T02:43:16.877Z,1.40
2018-07-09T02:45:46.058Z,1.50
2018-07-09T02:48:15.225Z,1.47
2018-07-09T02:50:44.364Z,1.47
2018-07-09T02:53:13.566Z,1.30
2018-07-09T02:55:42.736Z,1.37
2018-07-09T02:58:11.882Z,1.33
2018-07-09T03:00:41.095Z,1.40
2018-07-09T03:03:10.228Z,2.10
2018-07-09T03:05:39.384Z,2.03
2018-07-09T03:08:08.530Z,2.07
2018-07-09T03:10:37.691Z,1.90
2018-07-09T03:13:06.912Z,2.53
2018-07-09T03:15:36.088Z,2.00
2018-07-09T03:18:05.407Z,2.23
2018-07-09T03:20:34.730Z,2.27
2018-07-09T03:23:04.027Z,2.23
2018-07-09T03:25:33.195Z,2.00
2018-07-09T03:28:02.492Z,2.33
2018-07-09T03:30:31.810Z,2.23
2018-07-09T03:33:00.982Z,3.00
2018-07-09T03:35:30.209Z,2.83
2018-07-09T03:37:59.480Z,2.33
2018-07-09T03:40:28.429Z,2.73
2018-07-09T03:42:57.610Z,2.70
2018-07-09T03:45:26.808Z,2.63
2018-07-09T03:47:56.021Z,2.50
2018-07-09T03:50:25.240Z,3.07
2018-07-09T03:52:54.453Z,2.80
2018-07-09T03:55:23.657Z,2.50
2018-07-09T03:57:52.862Z,2.50
2018-07-09T04:00:22.052Z,2.53
2018-07-09T04:02:51.221Z,2.40
2018-07-09T04:05:20.437Z,2.60
2018-07-09T04:07:49.586Z,2.43
2018-07-09T04:10:18.744Z,2.70
2018-07-09T04:12:47.961Z,2.57
2018-07-09T04:15:17.177Z,2.80
2018-07-09T04:17:47.328Z,3.00
2018-07-09T04:20:16.500Z,2.70
2018-07-09T04:22:45.737Z,2.80
2018-07-09T04:25:15.038Z,2.93
2018-07-09T04:27:44.211Z,2.80
2018-07-09T04:30:13.447Z,3.40
2018-07-09T04:32:42.611Z,3.53
2018-07-09T04:35:11.521Z,2.97
2018-07-09T04:37:40.565Z,2.57
2018-07-09T04:40:09.748Z,3.10
2018-07-09T04:42:38.854Z,2.90
2018-07-09T04:45:08.057Z,2.73
2018-07-09T04:47:37.246Z,3.03
2018-07-09T04:50:06.511Z,2.63
2018-07-09T04:52:35.710Z,3.47
2018-07-09T04:55:04.899Z,2.90
2018-07-09T04:57:34.123Z,2.70
2018-07-09T05:00:03.453Z,3.37
2018-07-09T05:02:32.745Z,3.20
2018-07-09T05:05:02.425Z,3.30
2018-07-09T05:07:31.813Z,2.80
2018-07-09T05:10:01.131Z,2.80
2018-07-09T05:12:30.360Z,3.37
2018-07-09T05:14:59.536Z,3.07
2018-07-09T05:17:28.751Z,2.83
2018-07-09T05:19:57.950Z,3.20
2018-07-09T05:22:27.122Z,3.17
2018-07-09T05:24:56.397Z,3.27
2018-07-09T05:27:25.644Z,3.27
2018-07-09T05:29:54.816Z,2.90
2018-07-09T05:32:24.034Z,2.63
2018-07-09T05:34:53.204Z,2.70
2018-07-09T05:37:22.469Z,2.80
2018-07-09T05:39:51.672Z,2.50
2018-07-09T05:42:21.140Z,3.20
2018-07-09T05:44:50.330Z,3.00
2018-07-09T05:47:19.734Z,2.93
2018-07-09T05:49:49.184Z,4.27
2018-07-09T05:52:18.455Z,3.43
2018-07-09T05:54:47.648Z,2.87
2018-07-09T05:57:17.098Z,3.57
2018-07-09T05:59:46.462Z,3.07
2018-07-09T06:02:15.749Z,3.03
2018-07-09T06:04:44.989Z,3.20
2018-07-09T06:07:14.258Z,3.77
2018-07-09T06:09:43.549Z,3.30
2018-07-09T06:12:13.285Z,4.03
2018-07-09T06:14:42.476Z,3.83
2018-07-09T06:17:11.713Z,3.30
2018-07-09T06:19:40.986Z,3.70
2018-07-09T06:22:12.116Z,4.27
2018-07-09T06:24:41.024Z,3.90
2018-07-09T06:27:10.180Z,4.37
2018-07-09T06:29:39.553Z,3.97
2018-07-09T06:32:08.895Z,5.40
2018-07-09T06:34:38.056Z,4.50
2018-07-09T06:37:07.321Z,3.77
2018-07-09T06:39:36.526Z,3.47
2018-07-09T06:42:05.772Z,4.00
2018-07-09T06:44:34.994Z,3.60
2018-07-09T06:47:04.229Z,4.00
2018-07-09T06:49:33.611Z,4.23
2018-07-09T06:52:03.110Z,4.00
2018-07-09T06:54:32.449Z,3.93
2018-07-09T06:57:01.757Z,4.20
2018-07-09T06:59:31.043Z,3.80
2018-07-09T07:02:01.185Z,4.17
2018-07-09T07:04:32.372Z,4.20
2018-07-09T07:07:01.912Z,3.83
2018-07-09T07:09:31.185Z,3.83
2018-07-09T07:12:00.528Z,8.10
2018-07-09T07:14:29.934Z,5.33
2018-07-09T07:16:59.134Z,4.20
2018-07-09T07:19:31.063Z,4.53
2018-07-09T07:22:00.729Z,4.00
2018-07-09T07:24:29.994Z,3.10
2018-07-09T07:26:59.423Z,3.10
2018-07-09T07:29:28.762Z,2.92
2018-07-09T07:31:57.982Z,3.27
2018-07-09T07:34:27.197Z,3.47
2018-07-09T07:36:56.490Z,3.27
2018-07-09T07:39:25.743Z,2.77
2018-07-09T07:41:54.984Z,3.45
2018-07-09T07:44:24.238Z,3.60
2018-07-09T07:46:53.496Z,3.50
2018-07-09T07:49:22.733Z,3.17
2018-07-09T07:51:51.975Z,3.83
2018-07-09T07:54:21.239Z,3.30
2018-07-09T07:56:50.521Z,3.50
2018-07-09T07:59:19.737Z,3.58
2018-07-09T08:01:49.122Z,4.00
2018-07-09T08:04:18.319Z,3.67
2018-07-09T08:06:47.748Z,3.33
2018-07-09T08:09:16.998Z,3.25
2018-07-09T08:11:49.193Z,2.83
2018-07-09T08:14:15.335Z,2.52
2018-07-09T08:16:44.545Z,3.10
2018-07-09T08:19:13.822Z,2.90
2018-07-09T08:21:43.190Z,3.25
2018-07-09T08:24:12.488Z,3.42
2018-07-09T08:26:41.765Z,3.00
2018-07-09T08:29:10.990Z,3.15
2018-07-09T08:31:40.420Z,3.80
2018-07-09T08:34:09.789Z,3.40
2018-07-09T08:36:38.994Z,3.12
2018-07-09T08:39:08.612Z,4.00
2018-07-09T08:41:37.941Z,2.50
2018-07-09T08:44:07.278Z,2.67
2018-07-09T08:46:36.236Z,2.75
2018-07-09T08:49:05.493Z,2.90
2018-07-09T08:51:34.883Z,2.58
2018-07-09T08:54:04.226Z,2.20
2018-07-09T08:56:33.543Z,2.15
2018-07-09T08:59:03.525Z,2.30
2018-07-09T09:01:32.982Z,2.55
2018-07-09T09:04:02.599Z,2.12
2018-07-09T09:06:33.604Z,2.10
2018-07-09T09:09:04.080Z,2.67
2018-07-09T09:11:33.380Z,2.40
2018-07-09T09:14:02.557Z,2.72
2018-07-09T09:16:31.695Z,2.63
2018-07-09T09:19:01.053Z,2.07
2018-07-09T09:21:30.336Z,2.57
2018-07-09T09:23:59.612Z,3.17
2018-07-09T09:26:28.825Z,3.07
2018-07-09T09:28:58.026Z,2.47
2018-07-09T09:31:27.290Z,2.80
2018-07-09T09:33:56.462Z,3.07
2018-07-09T09:36:25.650Z,3.37
2018-07-09T09:38:54.838Z,2.80
2018-07-09T09:41:24.065Z,2.30
2018-07-09T09:43:53.297Z,2.67
2018-07-09T09:46:22.524Z,2.90
2018-07-09T09:48:51.732Z,3.07
2018-07-09T09:51:20.681Z,2.43
2018-07-09T09:53:49.894Z,2.50
2018-07-09T09:56:19.274Z,3.20
2018-07-09T09:58:48.450Z,2.30
2018-07-09T10:01:17.669Z,3.00
2018-07-09T10:03:46.890Z,2.63
2018-07-09T10:06:16.407Z,2.30
2018-07-09T10:08:45.571Z,2.80
2018-07-09T10:11:14.796Z,3.00
2018-07-09T10:13:44.010Z,3.00
2018-07-09T10:16:13.325Z,2.77
2018-07-09T10:18:42.640Z,2.90
2018-07-09T10:21:11.803Z,2.60
2018-07-09T10:23:41.227Z,2.97
2018-07-09T10:26:10.479Z,3.03
2018-07-09T10:28:39.857Z,14.17
2018-07-09T10:31:09.172Z,5.15
2018-07-09T10:33:38.413Z,3.33
2018-07-09T10:36:07.672Z,2.98
2018-07-09T10:38:36.921Z,3.27
2018-07-09T10:41:06.528Z,3.10
2018-07-09T10:43:35.748Z,3.25
2018-07-09T10:46:07.991Z,3.10
2018-07-09T10:48:37.280Z,3.45
2018-07-09T10:51:06.683Z,2.60
2018-07-09T10:53:36.146Z,2.80
2018-07-09T10:56:05.631Z,2.80
2018-07-09T10:58:34.880Z,3.00
2018-07-09T11:01:04.136Z,2.70
2018-07-09T11:03:33.470Z,2.60
2018-07-09T11:06:02.765Z,3.00
2018-07-09T11:08:32.207Z,3.60
2018-07-09T11:11:01.430Z,3.98
2018-07-09T11:13:30.757Z,3.92
2018-07-09T11:15:59.990Z,3.10
2018-07-09T11:18:29.291Z,3.22
2018-07-09T11:20:58.575Z,3.12
2018-07-09T11:23:27.797Z,3.20
2018-07-09T11:25:57.263Z,3.05
2018-07-09T11:28:27.412Z,2.92
2018-07-09T11:30:56.705Z,3.00
2018-07-09T11:33:25.933Z,2.98
2018-07-09T11:35:55.136Z,3.27
2018-07-09T11:38:24.407Z,3.00
2018-07-09T11:40:53.597Z,3.02
2018-07-09T11:43:22.801Z,3.08
2018-07-09T11:45:52.030Z,3.08
2018-07-09T11:48:21.241Z,3.33
2018-07-09T11:50:50.605Z,3.12
2018-07-09T11:53:19.926Z,3.40
2018-07-09T11:55:49.318Z,2.53
2018-07-09T11:58:18.580Z,2.75
2018-07-09T12:00:47.809Z,2.80
2018-07-09T12:03:17.034Z,2.80
2018-07-09T12:05:46.265Z,2.80
2018-07-09T12:08:15.674Z,2.60
2018-07-09T12:10:44.886Z,2.70
2018-07-09T12:13:14.112Z,2.12
2018-07-09T12:15:43.377Z,2.30
2018-07-09T12:18:12.611Z,1.80
2018-07-09T12:20:41.875Z,2.02
2018-07-09T12:23:11.180Z,2.20
2018-07-09T12:25:40.474Z,2.20
2018-07-09T12:28:09.740Z,2.42
2018-07-09T12:30:38.967Z,2.52
2018-07-09T12:33:08.231Z,2.40
2018-07-09T12:35:37.463Z,2.37
2018-07-09T12:38:06.814Z,2.40
2018-07-09T12:40:36.013Z,2.70
2018-07-09T12:43:05.461Z,3.00
2018-07-09T12:45:34.713Z,2.70
2018-07-09T12:48:04.011Z,2.90
2018-07-09T12:50:33.242Z,2.77
2018-07-09T12:53:02.495Z,2.12
2018-07-09T12:55:31.725Z,2.58
2018-07-09T12:58:01.006Z,6.05
2018-07-09T13:00:30.322Z,3.50
2018-07-09T13:02:59.501Z,2.50
2018-07-09T13:05:28.825Z,2.20
2018-07-09T13:07:58.054Z,2.90
2018-07-09T13:10:27.309Z,2.50
2018-07-09T13:12:56.711Z,2.70
2018-07-09T13:15:26.072Z,2.80
2018-07-09T13:17:55.405Z,2.70
2018-07-09T13:20:24.693Z,2.98
2018-07-09T13:22:54.029Z,2.45
2018-07-09T13:25:23.261Z,2.75
2018-07-09T13:27:52.514Z,2.70
2018-07-09T13:30:21.960Z,2.45
2018-07-09T13:32:51.254Z,2.60
2018-07-09T13:35:20.530Z,2.17
2018-07-09T13:37:49.811Z,2.58
2018-07-09T13:40:19.084Z,2.35
2018-07-09T13:42:48.335Z,2.62
2018-07-09T13:45:17.683Z,2.50
2018-07-09T13:47:46.964Z,2.17
2018-07-09T13:50:16.200Z,2.42
2018-07-09T13:52:45.445Z,2.30
2018-07-09T13:55:14.731Z,2.40
2018-07-09T13:57:43.997Z,2.30
2018-07-09T14:00:13.298Z,2.30
2018-07-09T14:02:42.493Z,2.45
2018-07-09T14:05:11.848Z,2.12
2018-07-09T14:07:41.205Z,2.22
2018-07-09T14:10:10.986Z,2.08
2018-07-09T14:12:40.312Z,2.20
2018-07-09T14:15:09.640Z,1.98
2018-07-09T14:17:38.938Z,1.90
2018-07-09T14:20:14.279Z,1.80
2018-07-09T14:22:43.370Z,1.77
2018-07-09T14:25:12.706Z,1.90
2018-07-09T14:27:41.550Z,2.27
2018-07-09T14:30:10.632Z,1.92
2018-07-09T14:32:40.085Z,1.75
2018-07-09T14:35:09.030Z,1.87
2018-07-09T14:37:38.142Z,3.37
2018-07-09T14:40:07.401Z,1.72
2018-07-09T14:42:36.886Z,2.25
2018-07-09T14:45:06.035Z,1.80
2018-07-09T14:47:34.899Z,1.90
2018-07-09T14:50:04.727Z,1.87
2018-07-09T14:52:34.101Z,1.50
2018-07-09T14:55:03.403Z,1.98
2018-07-09T14:57:32.751Z,1.85
2018-07-09T15:00:02.157Z,1.62
2018-07-09T15:02:31.809Z,2.20
2018-07-09T15:05:01.245Z,1.60
2018-07-09T15:07:30.547Z,1.60
2018-07-09T15:09:59.752Z,1.70
2018-07-09T15:12:29.263Z,1.72
2018-07-09T15:14:59.053Z,1.67
2018-07-09T15:17:28.425Z,1.70
2018-07-09T15:19:57.750Z,2.12
2018-07-09T15:22:27.035Z,1.60
2018-07-09T15:24:56.369Z,1.70
2018-07-09T15:27:25.700Z,2.00
2018-07-09T15:29:55.081Z,1.50
2018-07-09T15:32:31.695Z,1.52
2018-07-09T15:35:01.008Z,1.70
2018-07-09T15:37:30.238Z,1.57
2018-07-09T15:39:59.983Z,1.60
2018-07-09T15:42:29.311Z,1.82
2018-07-09T15:44:58.817Z,1.92
2018-07-09T15:47:28.236Z,1.98
2018-07-09T15:49:57.499Z,2.10
2018-07-09T15:52:26.573Z,1.85
2018-07-09T15:54:56.035Z,1.50
2018-07-09T15:57:25.213Z,1.70
2018-07-09T15:59:54.414Z,2.08
2018-07-09T16:02:23.695Z,1.90
2018-07-09T16:04:52.887Z,1.47
2018-07-09T16:07:22.832Z,1.87
2018-07-09T16:09:52.111Z,1.60
2018-07-09T16:12:21.939Z,2.30
2018-07-09T16:14:51.320Z,1.60
2018-07-09T16:17:21.087Z,1.62
2018-07-09T16:19:50.542Z,1.50
2018-07-09T16:22:20.073Z,1.70
2018-07-09T16:24:49.434Z,1.55
2018-07-09T16:27:18.685Z,1.67
2018-07-09T16:29:47.974Z,1.60
2018-07-09T16:32:17.346Z,1.50
2018-07-09T16:34:46.361Z,1.50
2018-07-09T16:37:15.441Z,1.72
2018-07-09T16:39:44.681Z,1.55
2018-07-09T16:42:13.923Z,1.40
2018-07-09T16:44:43.173Z,1.77
2018-07-09T16:47:12.882Z,1.50
2018-07-09T16:49:42.212Z,1.50
2018-07-09T16:52:11.501Z,1.65
2018-07-09T16:54:40.875Z,1.60
2018-07-09T16:57:10.056Z,1.65
2018-07-09T16:59:39.405Z,1.72
2018-07-09T17:02:08.585Z,1.57
2018-07-09T17:04:37.793Z,1.60
2018-07-09T17:07:07.202Z,1.72
2018-07-09T17:09:36.535Z,1.50
2018-07-09T17:12:05.891Z,1.35
2018-07-09T17:14:35.162Z,1.85
2018-07-09T17:17:04.503Z,1.42
2018-07-09T17:19:33.753Z,2.65
2018-07-09T17:22:02.967Z,1.80
2018-07-09T17:24:32.182Z,1.40
2018-07-09T17:27:01.516Z,1.87
2018-07-09T17:29:30.632Z,1.35
2018-07-09T17:31:59.571Z,1.47
2018-07-09T17:34:28.658Z,1.60
2018-07-09T17:36:57.842Z,3.25
2018-07-09T17:39:27.407Z,1.90
2018-07-09T17:41:57.638Z,2.85
2018-07-09T17:44:26.835Z,1.80
2018-07-09T17:46:56.243Z,2.08
2018-07-09T17:49:25.446Z,1.90
2018-07-09T17:51:54.724Z,2.50
2018-07-09T17:54:24.292Z,1.90
2018-07-09T17:56:53.621Z,2.08
2018-07-09T17:59:23.034Z,1.60
2018-07-09T18:01:52.363Z,1.70
2018-07-09T18:04:21.976Z,1.85
2018-07-09T18:06:51.192Z,3.05
2018-07-09T18:09:20.783Z,1.72
2018-07-09T18:11:50.085Z,1.80
2018-07-09T18:14:19.771Z,1.60
2018-07-09T18:16:49.381Z,1.80
2018-07-09T18:19:18.744Z,1.70
2018-07-09T18:21:48.015Z,2.02
2018-07-09T18:24:17.329Z,2.27
2018-07-09T18:26:46.605Z,2.20
2018-07-09T18:29:15.886Z,1.90
2018-07-09T18:31:45.650Z,2.45
2018-07-09T18:36:49.013Z,2.98
2018-07-09T18:39:18.337Z,2.27
2018-07-09T18:41:47.954Z,2.40
2018-07-09T18:44:17.273Z,1.90
2018-07-09T18:46:47.195Z,2.50
2018-07-09T18:49:16.485Z,2.30
2018-07-09T18:51:45.942Z,2.27
2018-07-09T18:54:15.296Z,2.20
2018-07-09T18:56:44.618Z,5.73
2018-07-09T18:59:15.023Z,3.73
2018-07-09T19:01:44.704Z,2.05
2018-07-09T19:04:14.167Z,1.90
2018-07-09T19:06:55.468Z,1.75
2018-07-09T19:09:25.831Z,2.25
2018-07-09T19:11:55.362Z,2.12
2018-07-09T19:14:37.163Z,2.10
2018-07-09T19:18:26.432Z,1.70
2018-07-09T19:21:38.945Z,2.20
2018-07-09T19:24:08.385Z,4.33
2018-07-09T19:26:36.905Z,4.97
2018-07-09T19:29:05.007Z,4.05
2018-07-09T19:31:33.086Z,2.80
2018-07-09T19:34:01.212Z,2.30
2018-07-09T19:36:29.490Z,1.93
2018-07-09T19:38:57.754Z,2.83
2018-07-09T19:41:27.962Z,2.07
2018-07-09T19:43:55.981Z,2.03
2018-07-09T19:46:24.353Z,2.03
2018-07-09T19:48:52.432Z,2.23
2018-07-09T19:51:20.519Z,2.43
2018-07-09T19:53:48.684Z,2.50
2018-07-09T19:56:16.707Z,2.87
2018-07-09T19:58:44.947Z,2.70
2018-07-09T20:01:13.037Z,2.13
2018-07-09T20:03:43.228Z,2.60
2018-07-09T20:06:11.368Z,2.63
2018-07-09T20:08:44.896Z,2.70
2018-07-09T20:11:18.153Z,2.50
2018-07-09T20:14:01.499Z,2.50
2018-07-09T20:16:34.944Z,2.83
2018-07-09T20:19:03.343Z,2.60
2018-07-09T20:21:31.507Z,2.63
2018-07-09T20:24:00.009Z,2.70
2018-07-09T20:26:28.236Z,2.70
2018-07-09T20:28:58.757Z,2.33
2018-07-09T20:31:26.931Z,1.97
2018-07-09T20:33:55.004Z,2.37
2018-07-09T20:36:23.265Z,2.13
2018-07-09T20:38:51.347Z,1.93
2018-07-09T20:41:19.893Z,2.40
2018-07-09T20:43:48.032Z,2.00
2018-07-09T20:46:16.069Z,2.00
2018-07-09T20:48:44.157Z,2.23
2018-07-09T20:51:12.342Z,2.10
2018-07-09T20:53:41.951Z,2.27
2018-07-09T20:56:10.448Z,2.10
2018-07-09T20:58:38.614Z,2.17
2018-07-09T21:01:07.391Z,2.67
2018-07-09T21:03:35.901Z,3.57
2018-07-09T21:06:05.983Z,3.33
2018-07-09T21:08:34.223Z,2.43
2018-07-09T21:11:03.221Z,2.70
2018-07-09T21:13:32.741Z,2.67
2018-07-09T21:16:00.925Z,2.60
2018-07-09T21:18:28.757Z,2.50
2018-07-09T21:20:56.914Z,2.77
2018-07-09T21:23:25.687Z,2.30
2018-07-09T21:25:54.007Z,2.20
2018-07-09T21:28:22.136Z,2.27
2018-07-09T21:30:50.170Z,2.17
2018-07-09T21:33:18.366Z,2.30
2018-07-09T21:35:46.605Z,2.30
2018-07-09T21:38:15.658Z,2.40
2018-07-09T21:40:43.764Z,2.77
2018-07-09T21:43:12.331Z,2.00
2018-07-09T21:45:40.550Z,2.10
2018-07-09T21:48:10.559Z,3.17
2018-07-09T21:50:37.322Z,2.47
2018-07-09T21:53:06.057Z,2.70
2018-07-09T21:55:34.097Z,2.20
2018-07-09T21:58:03.394Z,2.10
2018-07-09T22:00:31.451Z,1.93
2018-07-09T22:02:59.485Z,2.23
2018-07-09T22:05:27.630Z,2.40
2018-07-09T22:07:57.914Z,2.40
2018-07-09T22:10:26.382Z,2.20
2018-07-09T22:12:54.556Z,2.10
2018-07-09T22:15:22.568Z,2.20
2018-07-09T22:17:52.100Z,2.07
2018-07-09T22:20:20.270Z,1.93
2018-07-09T22:22:48.248Z,1.80
2018-07-09T22:25:17.470Z,2.17
2018-07-09T22:27:45.703Z,2.20
2018-07-09T22:30:13.789Z,1.80
2018-07-09T22:32:43.106Z,2.20
2018-07-09T22:35:12.624Z,1.80
2018-07-09T22:37:41.978Z,1.97
2018-07-09T22:40:11.056Z,2.60
2018-07-09T22:42:40.116Z,2.00
2018-07-09T22:45:09.438Z,2.00
2018-07-09T22:47:38.827Z,2.30
2018-07-09T22:50:08.637Z,1.97
2018-07-09T22:52:39.453Z,2.10
2018-07-09T22:55:19.904Z,1.93
2018-07-09T22:57:49.296Z,2.20
2018-07-09T23:00:20.980Z,2.10
2018-07-09T23:03:02.301Z,1.83
2018-07-09T23:05:31.511Z,1.70
2018-07-09T23:08:01.027Z,2.13
2018-07-09T23:11:38.042Z,1.97
2018-07-09T23:16:46.314Z,2.10
2018-07-09T23:19:27.950Z,1.87
2018-07-09T23:22:08.511Z,2.20
2018-07-09T23:24:36.740Z,2.30
2018-07-09T23:27:04.920Z,2.10
2018-07-09T23:29:32.927Z,2.03
2018-07-09T23:32:00.998Z,2.03
2018-07-09T23:34:29.042Z,1.90
2018-07-09T23:36:57.054Z,2.00
2018-07-09T23:39:25.091Z,2.00
2018-07-09T23:41:53.119Z,2.00
2018-07-09T23:44:21.265Z,2.27
2018-07-09T23:46:49.446Z,1.70
2018-07-09T23:49:17.507Z,1.73
2018-07-09T23:51:45.571Z,2.10
2018-07-09T23:54:13.605Z,1.93
2018-07-09T23:57:08.698Z,2.00
2018-07-09T23:59:50.755Z,1.67
